Port Griffith, Pennsylvania
Current Conditions -  °F | °C
As of 12:54 PM on Monday 24 Nov 2014 (Local Time) from KAVP Reporting Station
Few Clouds Few Clouds  
Wind Chill: 21°   Ceiling: Unl
Heat Index: 21°   Visibility: 10mi
Dew Point: 12°   Wind: 18mph
Humidity: 57%   Direction: 210°SSW
Pressure: 29.51"   Gusts: 30mph
Location:  41.2973°N, 75.7399°W
Report Text: KAVP 241754Z 21016G26KT 10SM FEW033 21/12 A2951 RMK AO2 PK WND 19035/1739 SLP986 T02060117 10206 20167 56027
Loading
Personal Weather Stations






























Interactive Weather Map New forecast layout! Learn more

10-Day Weather Forecast

Advertisements
Track Severe Weather on mobile